createdAt,value
2023-05-01T00:00:26.429Z,82.90
2023-05-01T00:05:26.336Z,82.70
2023-05-01T00:10:26.258Z,82.90
2023-05-01T00:15:24.861Z,82.90
2023-05-01T00:20:23.822Z,83.60
2023-05-01T00:25:22.319Z,83.30
2023-05-01T00:30:22.224Z,83.80
2023-05-01T00:35:20.348Z,83.00
2023-05-01T00:40:18.968Z,82.90
2023-05-01T00:45:17.542Z,82.90
2023-05-01T00:50:18.678Z,83.50
2023-05-01T00:55:17.756Z,83.40
2023-05-01T01:00:19.690Z,83.20
2023-05-01T01:05:22.947Z,83.50
2023-05-01T01:10:31.766Z,84.10
2023-05-01T01:15:35.944Z,84.10
2023-05-01T01:20:42.714Z,84.70
2023-05-01T01:26:10.749Z,83.80
2023-05-01T01:31:16.559Z,84.20
2023-05-01T01:36:21.435Z,84.10
2023-05-01T01:41:28.057Z,84.40
2023-05-01T01:46:28.563Z,84.30
2023-05-01T01:51:30.280Z,84.50
2023-05-01T01:56:30.683Z,84.50
2023-05-01T02:01:31.054Z,84.80
2023-05-01T02:06:33.256Z,84.40
2023-05-01T02:11:32.249Z,84.80
2023-05-01T02:16:31.496Z,84.80
2023-05-01T02:21:32.753Z,84.80
2023-05-01T02:26:32.473Z,84.70
2023-05-01T02:31:32.219Z,84.80
2023-05-01T02:36:32.400Z,84.90
2023-05-01T02:41:34.669Z,85.00
2023-05-01T02:46:37.217Z,84.80
2023-05-01T02:51:38.795Z,84.70
2023-05-01T02:56:37.244Z,85.00
2023-05-01T03:01:36.212Z,85.10
2023-05-01T03:06:34.722Z,85.20
2023-05-01T03:11:34.538Z,85.30
2023-05-01T03:16:34.162Z,85.30
2023-05-01T03:21:34.212Z,85.70
2023-05-01T03:26:34.344Z,84.90
2023-05-01T03:31:32.892Z,85.10
2023-05-01T03:36:34.174Z,85.20
2023-05-01T03:41:34.472Z,85.20
2023-05-01T03:46:47.604Z,85.00
2023-05-01T03:51:52.110Z,85.10
2023-05-01T03:56:52.026Z,85.30
2023-05-01T04:01:51.806Z,85.00
2023-05-01T04:06:50.489Z,85.20
2023-05-01T04:11:49.219Z,85.20
2023-05-01T04:16:49.805Z,85.70
2023-05-01T04:21:48.792Z,86.10
2023-05-01T04:26:47.295Z,85.70
2023-05-01T04:31:46.156Z,85.90
2023-05-01T04:36:46.064Z,87.10
2023-05-01T04:41:44.576Z,86.30
2023-05-01T04:46:43.211Z,86.60
2023-05-01T04:51:41.858Z,87.00
2023-05-01T04:56:44.487Z,87.50
2023-05-01T05:01:43.071Z,87.80
2023-05-01T05:06:41.795Z,88.30
2023-05-01T05:11:48.076Z,89.60
2023-05-01T05:16:52.884Z,89.20
2023-05-01T05:21:51.639Z,89.10
2023-05-01T05:26:51.216Z,89.40
2023-05-01T05:31:50.227Z,88.90
2023-05-01T05:36:49.457Z,89.50
2023-05-01T05:41:55.427Z,90.10
2023-05-01T05:46:54.069Z,89.90
2023-05-01T05:52:00.505Z,89.60
2023-05-01T05:57:01.585Z,88.90
2023-05-01T06:02:00.782Z,89.50
2023-05-01T06:07:00.694Z,89.40
2023-05-01T06:12:00.676Z,88.90
2023-05-01T06:16:59.390Z,89.40
2023-05-01T06:21:57.933Z,89.70
2023-05-01T06:26:56.321Z,89.30
2023-05-01T06:31:56.468Z,88.60
2023-05-01T06:36:55.473Z,88.60
2023-05-01T06:41:54.793Z,89.30
2023-05-01T06:47:04.035Z,87.40
2023-05-01T06:52:02.881Z,88.20
2023-05-01T06:57:01.736Z,87.90
2023-05-01T07:02:00.316Z,88.60
2023-05-01T07:07:00.199Z,89.10
2023-05-01T07:12:00.033Z,87.10
2023-05-01T07:16:58.827Z,88.30
2023-05-01T07:21:57.413Z,87.40
2023-05-01T07:26:58.291Z,86.90
2023-05-01T07:31:57.113Z,87.50
2023-05-01T07:36:56.778Z,88.50
2023-05-01T07:41:59.046Z,86.40
2023-05-01T07:47:03.707Z,86.80
2023-05-01T07:52:02.509Z,85.50
2023-05-01T07:57:04.745Z,83.60
2023-05-01T08:02:03.888Z,84.90
2023-05-01T08:07:02.531Z,84.70
2023-05-01T08:12:04.240Z,84.10
2023-05-01T08:17:02.700Z,83.20
2023-05-01T08:22:01.179Z,84.30
2023-05-01T08:26:59.714Z,86.00
2023-05-01T08:32:00.143Z,84.10
2023-05-01T08:36:58.654Z,81.90
2023-05-01T08:41:58.753Z,82.90
2023-05-01T08:47:08.817Z,81.40
2023-05-01T08:52:08.999Z,82.60
2023-05-01T08:57:10.607Z,81.30
2023-05-01T09:02:11.505Z,80.40
2023-05-01T09:07:10.556Z,80.10
2023-05-01T09:12:16.981Z,78.60
2023-05-01T09:17:16.997Z,79.00
2023-05-01T09:22:16.193Z,78.30
2023-05-01T09:27:14.873Z,80.20
2023-05-01T09:32:21.238Z,78.20
2023-05-01T09:37:30.672Z,79.60
2023-05-01T09:42:29.193Z,78.30
2023-05-01T09:47:30.061Z,80.10
2023-05-01T09:52:29.470Z,78.40
2023-05-01T09:57:38.597Z,78.80
2023-05-01T10:02:38.723Z,78.80
2023-05-01T10:07:37.377Z,79.10
2023-05-01T10:12:37.438Z,76.30
2023-05-01T10:17:37.684Z,75.40
2023-05-01T10:22:36.624Z,78.20
2023-05-01T10:27:36.679Z,72.70
2023-05-01T10:32:36.535Z,71.20
2023-05-01T10:37:41.405Z,73.90
2023-05-01T10:43:13.075Z,74.90
2023-05-01T10:48:11.398Z,72.90
2023-05-01T10:53:21.074Z,71.70
2023-05-01T10:58:57.414Z,74.30
2023-05-01T11:03:56.805Z,75.10
2023-05-01T11:08:56.949Z,72.00
2023-05-01T11:14:02.999Z,73.70
2023-05-01T11:19:01.628Z,76.10
2023-05-01T11:24:01.241Z,74.70
2023-05-01T11:29:02.105Z,73.80
2023-05-01T11:34:00.927Z,70.90
2023-05-01T11:39:02.517Z,73.00
2023-05-01T11:44:01.270Z,73.30
2023-05-01T11:49:01.245Z,74.60
2023-05-01T11:54:02.036Z,75.00
2023-05-01T11:59:10.516Z,71.90
2023-05-01T12:04:09.822Z,71.50
2023-05-01T12:09:09.969Z,67.90
2023-05-01T12:14:08.754Z,71.20
2023-05-01T12:19:07.853Z,68.60
2023-05-01T12:24:12.055Z,73.00
2023-05-01T12:29:11.625Z,73.20
2023-05-01T12:34:10.137Z,70.80
2023-05-01T12:39:12.189Z,72.60
2023-05-01T12:44:24.304Z,67.30
2023-05-01T12:49:23.628Z,65.00
2023-05-01T12:54:25.368Z,69.60
2023-05-01T12:59:25.542Z,67.90
2023-05-01T13:04:24.481Z,67.20
2023-05-01T13:09:24.984Z,68.20
2023-05-01T13:14:23.520Z,68.90
2023-05-01T13:19:29.700Z,67.80
2023-05-01T13:24:39.642Z,65.30
2023-05-01T13:29:39.246Z,69.60
2023-05-01T13:34:37.644Z,68.00
2023-05-01T13:39:37.658Z,65.40
2023-05-01T13:44:45.269Z,65.90
2023-05-01T13:49:44.623Z,59.40
2023-05-01T13:54:44.641Z,63.00
2023-05-01T13:59:45.046Z,65.10
2023-05-01T14:04:44.277Z,66.40
2023-05-01T14:09:46.072Z,59.80
2023-05-01T14:14:48.992Z,63.60
2023-05-01T14:19:47.926Z,64.60
2023-05-01T14:24:47.769Z,62.70
2023-05-01T14:29:47.133Z,62.70
2023-05-01T14:34:46.710Z,61.80
2023-05-01T14:39:45.247Z,56.00
2023-05-01T14:44:45.170Z,56.40
2023-05-01T14:49:43.733Z,58.80
2023-05-01T14:54:48.638Z,60.40
2023-05-01T14:59:48.669Z,59.20
2023-05-01T15:04:47.157Z,60.80
2023-05-01T15:09:46.688Z,58.20
2023-05-01T15:14:45.167Z,59.20
2023-05-01T15:19:45.032Z,59.10
2023-05-01T15:24:43.172Z,58.70
2023-05-01T15:29:42.086Z,59.20
2023-05-01T15:34:41.612Z,58.90
2023-05-01T15:39:41.704Z,59.30
2023-05-01T15:44:40.198Z,61.20
2023-05-01T15:49:38.761Z,61.60
2023-05-01T15:54:37.912Z,60.90
2023-05-01T15:59:40.306Z,61.80
2023-05-01T16:04:39.823Z,61.60
2023-05-01T16:09:38.438Z,62.00
2023-05-01T16:14:41.488Z,60.10
2023-05-01T16:19:41.830Z,60.30
2023-05-01T16:24:40.387Z,61.20
2023-05-01T16:29:41.267Z,60.50
2023-05-01T16:34:41.519Z,60.00
2023-05-01T16:39:39.809Z,64.60
2023-05-01T16:44:39.462Z,62.80
2023-05-01T16:49:40.996Z,62.50
2023-05-01T16:54:39.171Z,63.50
2023-05-01T16:59:40.428Z,63.30
2023-05-01T17:04:39.375Z,63.70
2023-05-01T17:09:37.888Z,63.10
2023-05-01T17:14:36.202Z,63.70
2023-05-01T17:19:39.155Z,64.40
2023-05-01T17:24:37.913Z,64.30
2023-05-01T17:29:36.637Z,64.50
2023-05-01T17:34:36.513Z,63.90
2023-05-01T17:39:34.728Z,64.90
2023-05-01T17:44:33.968Z,65.70
2023-05-01T17:49:33.783Z,65.80
2023-05-01T17:54:33.761Z,66.10
2023-05-01T17:59:32.370Z,66.30
2023-05-01T18:04:30.869Z,67.80
2023-05-01T18:09:29.419Z,66.40
2023-05-01T18:14:30.529Z,67.20
2023-05-01T18:19:29.337Z,67.20
2023-05-01T18:24:27.546Z,67.90
2023-05-01T18:29:26.059Z,67.80
2023-05-01T18:34:26.034Z,68.20
2023-05-01T18:39:24.514Z,68.10
2023-05-01T18:44:23.480Z,68.50
2023-05-01T18:49:24.254Z,69.10
2023-05-01T18:54:24.976Z,70.00
2023-05-01T18:59:24.259Z,70.10
2023-05-01T19:04:22.805Z,70.90
2023-05-01T19:09:20.978Z,71.10
2023-05-01T19:14:21.759Z,71.10
2023-05-01T19:19:20.667Z,70.80
2023-05-01T19:24:18.843Z,71.00
2023-05-01T19:29:18.038Z,71.10
2023-05-01T19:34:17.613Z,71.40
2023-05-01T19:39:16.140Z,71.40
2023-05-01T19:44:14.866Z,71.80
2023-05-01T19:49:13.433Z,71.60
2023-05-01T19:54:13.311Z,71.80
2023-05-01T19:59:11.818Z,71.50
2023-05-01T20:04:10.410Z,71.90
2023-05-01T20:09:08.986Z,72.20
2023-05-01T20:14:08.830Z,72.50
2023-05-01T20:19:07.302Z,72.20
2023-05-01T20:24:06.025Z,72.20
2023-05-01T20:29:04.602Z,71.50
2023-05-01T20:34:04.494Z,72.40
2023-05-01T20:39:03.005Z,72.20
2023-05-01T20:44:02.795Z,73.00
2023-05-01T20:49:01.536Z,72.60
2023-05-01T20:54:01.400Z,72.40
2023-05-01T20:59:00.542Z,72.90
2023-05-01T21:04:00.108Z,72.40
2023-05-01T21:09:02.271Z,72.20
2023-05-01T21:14:01.046Z,72.60
2023-05-01T21:18:59.509Z,72.30
2023-05-01T21:23:57.948Z,72.90
2023-05-01T21:28:59.089Z,72.60
2023-05-01T21:34:02.705Z,73.10
2023-05-01T21:39:02.548Z,73.60
2023-05-01T21:44:04.769Z,73.10
2023-05-01T21:49:03.334Z,73.30
2023-05-01T21:54:02.765Z,73.40
2023-05-01T21:59:03.897Z,74.10
2023-05-01T22:04:02.672Z,74.30
2023-05-01T22:09:00.824Z,74.10
2023-05-01T22:14:02.305Z,74.30
2023-05-01T22:19:01.725Z,74.80
2023-05-01T22:24:00.155Z,74.80
2023-05-01T22:28:58.439Z,75.60
2023-05-01T22:33:57.035Z,75.60
2023-05-01T22:38:56.507Z,75.40
2023-05-01T22:43:55.366Z,75.60
2023-05-01T22:48:53.872Z,76.00
2023-05-01T22:53:52.374Z,75.90
2023-05-01T22:58:52.209Z,76.00
2023-05-01T23:03:51.778Z,75.90
2023-05-01T23:08:53.956Z,75.70
2023-05-01T23:13:54.315Z,76.10
2023-05-01T23:18:52.800Z,76.00
2023-05-01T23:23:51.412Z,76.30
2023-05-01T23:28:49.921Z,76.40
2023-05-01T23:33:49.758Z,76.40
2023-05-01T23:38:48.785Z,76.30
2023-05-01T23:43:48.506Z,76.60
2023-05-01T23:48:47.092Z,76.50
2023-05-01T23:53:46.981Z,76.90
2023-05-01T23:58:45.481Z,76.70
